sensor_id;sensor_type;location;lat;lon;timestamp;P1;durP1;ratioP1;P2;durP2;ratioP2
23336;SDS011;11840;45.414;12.372;2022-10-16T00:00:19;40.83;;;30.98;;
23336;SDS011;11840;45.414;12.372;2022-10-16T00:02:45;36.75;;;30.27;;
23336;SDS011;11840;45.414;12.372;2022-10-16T00:05:11;40.58;;;30.95;;
23336;SDS011;11840;45.414;12.372;2022-10-16T00:07:37;42.58;;;30.33;;
23336;SDS011;11840;45.414;12.372;2022-10-16T00:10:04;36.45;;;28.92;;
23336;SDS011;11840;45.414;12.372;2022-10-16T00:12:31;41.85;;;32.30;;
23336;SDS011;11840;45.414;12.372;2022-10-16T00:14:58;56.42;;;38.42;;
23336;SDS011;11840;45.414;12.372;2022-10-16T00:17:23;65.18;;;43.85;;
23336;SDS011;11840;45.414;12.372;2022-10-16T00:19:50;68.22;;;45.65;;
23336;SDS011;11840;45.414;12.372;2022-10-16T00:22:16;62.53;;;43.97;;
23336;SDS011;11840;45.414;12.372;2022-10-16T00:24:42;73.63;;;49.20;;
23336;SDS011;11840;45.414;12.372;2022-10-16T00:27:08;77.78;;;51.78;;
23336;SDS011;11840;45.414;12.372;2022-10-16T00:29:35;75.97;;;50.70;;
23336;SDS011;11840;45.414;12.372;2022-10-16T00:32:01;77.03;;;51.45;;
23336;SDS011;11840;45.414;12.372;2022-10-16T00:34:27;84.63;;;53.40;;
23336;SDS011;11840;45.414;12.372;2022-10-16T00:36:53;77.75;;;51.75;;
23336;SDS011;11840;45.414;12.372;2022-10-16T00:39:19;78.57;;;51.55;;
23336;SDS011;11840;45.414;12.372;2022-10-16T00:41:45;81.03;;;51.75;;
23336;SDS011;11840;45.414;12.372;2022-10-16T00:46:56;83.63;;;52.22;;
23336;SDS011;11840;45.414;12.372;2022-10-16T00:49:22;78.53;;;52.55;;
23336;SDS011;11840;45.414;12.372;2022-10-16T00:51:49;77.20;;;51.03;;
23336;SDS011;11840;45.414;12.372;2022-10-16T00:54:17;83.75;;;54.20;;
23336;SDS011;11840;45.414;12.372;2022-10-16T00:56:45;80.18;;;53.00;;
23336;SDS011;11840;45.414;12.372;2022-10-16T00:59:14;70.22;;;47.38;;
23336;SDS011;11840;45.414;12.372;2022-10-16T01:01:40;77.65;;;51.08;;
23336;SDS011;11840;45.414;12.372;2022-10-16T01:04:06;87.63;;;51.88;;
23336;SDS011;11840;45.414;12.372;2022-10-16T01:14:03;82.45;;;53.47;;
23336;SDS011;11840;45.414;12.372;2022-10-16T01:16:35;84.47;;;53.78;;
23336;SDS011;11840;45.414;12.372;2022-10-16T01:21:47;83.22;;;53.97;;
23336;SDS011;11840;45.414;12.372;2022-10-16T01:27:08;82.15;;;55.13;;
23336;SDS011;11840;45.414;12.372;2022-10-16T01:29:54;84.43;;;54.70;;
23336;SDS011;11840;45.414;12.372;2022-10-16T01:32:28;83.40;;;53.30;;
23336;SDS011;11840;45.414;12.372;2022-10-16T01:35:09;83.75;;;54.30;;
23336;SDS011;11840;45.414;12.372;2022-10-16T01:37:41;83.40;;;54.08;;
23336;SDS011;11840;45.414;12.372;2022-10-16T01:40:09;84.03;;;55.53;;
23336;SDS011;11840;45.414;12.372;2022-10-16T01:42:41;83.32;;;54.08;;
23336;SDS011;11840;45.414;12.372;2022-10-16T01:45:08;80.40;;;53.38;;
23336;SDS011;11840;45.414;12.372;2022-10-16T01:47:36;80.25;;;52.92;;
23336;SDS011;11840;45.414;12.372;2022-10-16T01:50:03;83.30;;;53.53;;
23336;SDS011;11840;45.414;12.372;2022-10-16T01:52:30;78.82;;;51.72;;
23336;SDS011;11840;45.414;12.372;2022-10-16T01:54:57;78.60;;;51.83;;
23336;SDS011;11840;45.414;12.372;2022-10-16T01:57:25;81.65;;;52.67;;
23336;SDS011;11840;45.414;12.372;2022-10-16T01:59:52;81.50;;;51.53;;
23336;SDS011;11840;45.414;12.372;2022-10-16T02:02:20;78.80;;;51.40;;
23336;SDS011;11840;45.414;12.372;2022-10-16T02:04:48;78.60;;;50.80;;
23336;SDS011;11840;45.414;12.372;2022-10-16T02:07:16;79.47;;;51.88;;
23336;SDS011;11840;45.414;12.372;2022-10-16T02:09:42;81.22;;;51.90;;
23336;SDS011;11840;45.414;12.372;2022-10-16T02:12:10;72.30;;;49.20;;
23336;SDS011;11840;45.414;12.372;2022-10-16T02:14:38;79.80;;;51.03;;
23336;SDS011;11840;45.414;12.372;2022-10-16T02:17:10;86.00;;;52.80;;
23336;SDS011;11840;45.414;12.372;2022-10-16T02:19:35;75.85;;;50.38;;
23336;SDS011;11840;45.414;12.372;2022-10-16T02:22:03;76.38;;;49.80;;
23336;SDS011;11840;45.414;12.372;2022-10-16T02:24:33;78.18;;;51.60;;
23336;SDS011;11840;45.414;12.372;2022-10-16T02:27:11;70.40;;;47.88;;
23336;SDS011;11840;45.414;12.372;2022-10-16T02:29:40;78.32;;;50.92;;
23336;SDS011;11840;45.414;12.372;2022-10-16T02:32:09;75.15;;;50.30;;
23336;SDS011;11840;45.414;12.372;2022-10-16T02:34:36;70.78;;;49.92;;
23336;SDS011;11840;45.414;12.372;2022-10-16T02:37:03;77.65;;;50.28;;
23336;SDS011;11840;45.414;12.372;2022-10-16T02:39:30;73.85;;;50.17;;
23336;SDS011;11840;45.414;12.372;2022-10-16T02:41:56;78.60;;;50.35;;
23336;SDS011;11840;45.414;12.372;2022-10-16T02:44:22;70.63;;;49.25;;
23336;SDS011;11840;45.414;12.372;2022-10-16T02:46:48;73.90;;;48.47;;
23336;SDS011;11840;45.414;12.372;2022-10-16T02:49:15;72.00;;;49.15;;
23336;SDS011;11840;45.414;12.372;2022-10-16T02:51:41;72.10;;;49.72;;
23336;SDS011;11840;45.414;12.372;2022-10-16T02:54:07;77.28;;;51.58;;
23336;SDS011;11840;45.414;12.372;2022-10-16T02:56:33;70.22;;;47.80;;
23336;SDS011;11840;45.414;12.372;2022-10-16T08:03:50;66.22;;;45.95;;
23336;SDS011;11840;45.414;12.372;2022-10-16T08:06:16;67.00;;;48.60;;
23336;SDS011;11840;45.414;12.372;2022-10-16T08:08:42;80.72;;;59.92;;
23336;SDS011;11840;45.414;12.372;2022-10-16T08:11:08;111.07;;;82.30;;
23336;SDS011;11840;45.414;12.372;2022-10-16T08:13:34;67.22;;;49.35;;
23336;SDS011;11840;45.414;12.372;2022-10-16T08:16:00;60.47;;;44.60;;
23336;SDS011;11840;45.414;12.372;2022-10-16T08:18:27;72.45;;;54.42;;
23336;SDS011;11840;45.414;12.372;2022-10-16T08:20:57;72.55;;;52.83;;
23336;SDS011;11840;45.414;12.372;2022-10-16T08:23:23;71.82;;;52.55;;
23336;SDS011;11840;45.414;12.372;2022-10-16T08:25:51;64.70;;;45.33;;
23336;SDS011;11840;45.414;12.372;2022-10-16T08:28:18;59.45;;;42.75;;
23336;SDS011;11840;45.414;12.372;2022-10-16T08:30:44;60.95;;;43.55;;
23336;SDS011;11840;45.414;12.372;2022-10-16T08:33:10;63.30;;;45.85;;
23336;SDS011;11840;45.414;12.372;2022-10-16T08:35:35;58.67;;;44.20;;
23336;SDS011;11840;45.414;12.372;2022-10-16T08:38:05;58.83;;;42.90;;
23336;SDS011;11840;45.414;12.372;2022-10-16T08:40:32;57.65;;;43.17;;
23336;SDS011;11840;45.414;12.372;2022-10-16T08:50:26;59.33;;;43.35;;
23336;SDS011;11840;45.414;12.372;2022-10-16T08:52:53;57.63;;;42.72;;
23336;SDS011;11840;45.414;12.372;2022-10-16T08:57:50;54.75;;;43.22;;
23336;SDS011;11840;45.414;12.372;2022-10-16T09:00:16;57.55;;;42.97;;
23336;SDS011;11840;45.414;12.372;2022-10-16T09:02:46;58.28;;;43.67;;
23336;SDS011;11840;45.414;12.372;2022-10-16T09:05:29;53.63;;;42.60;;
23336;SDS011;11840;45.414;12.372;2022-10-16T09:08:09;56.45;;;42.33;;
23336;SDS011;11840;45.414;12.372;2022-10-16T09:13:14;56.00;;;41.90;;
23336;SDS011;11840;45.414;12.372;2022-10-16T09:23:28;52.20;;;41.10;;
23336;SDS011;11840;45.414;12.372;2022-10-16T09:25:55;52.58;;;40.33;;
23336;SDS011;11840;45.414;12.372;2022-10-16T09:28:21;52.10;;;40.03;;
23336;SDS011;11840;45.414;12.372;2022-10-16T09:30:47;52.08;;;40.90;;
23336;SDS011;11840;45.414;12.372;2022-10-16T09:33:17;55.60;;;40.85;;
23336;SDS011;11840;45.414;12.372;2022-10-16T09:35:44;56.25;;;42.20;;
23336;SDS011;11840;45.414;12.372;2022-10-16T09:41:19;54.25;;;41.05;;
23336;SDS011;11840;45.414;12.372;2022-10-16T09:46:21;52.95;;;40.92;;
23336;SDS011;11840;45.414;12.372;2022-10-16T09:48:49;50.22;;;40.20;;
23336;SDS011;11840;45.414;12.372;2022-10-16T09:51:20;55.47;;;41.08;;
23336;SDS011;11840;45.414;12.372;2022-10-16T09:53:47;53.78;;;40.47;;
23336;SDS011;11840;45.414;12.372;2022-10-16T09:56:29;51.53;;;39.92;;
23336;SDS011;11840;45.414;12.372;2022-10-16T09:58:56;49.45;;;39.80;;
23336;SDS011;11840;45.414;12.372;2022-10-16T10:01:25;51.88;;;39.85;;
23336;SDS011;11840;45.414;12.372;2022-10-16T10:03:55;52.92;;;40.47;;
23336;SDS011;11840;45.414;12.372;2022-10-16T10:06:45;55.60;;;41.03;;
23336;SDS011;11840;45.414;12.372;2022-10-16T10:09:31;47.35;;;39.55;;
23336;SDS011;11840;45.414;12.372;2022-10-16T10:11:59;48.10;;;39.85;;
23336;SDS011;11840;45.414;12.372;2022-10-16T10:14:46;50.63;;;39.45;;
23336;SDS011;11840;45.414;12.372;2022-10-16T10:17:12;48.33;;;38.00;;
23336;SDS011;11840;45.414;12.372;2022-10-16T10:24:55;42.92;;;34.63;;
23336;SDS011;11840;45.414;12.372;2022-10-16T10:27:21;43.90;;;35.10;;
23336;SDS011;11840;45.414;12.372;2022-10-16T10:37:20;46.00;;;37.22;;
23336;SDS011;11840;45.414;12.372;2022-10-16T10:39:53;48.03;;;37.83;;
23336;SDS011;11840;45.414;12.372;2022-10-16T10:42:43;50.08;;;36.85;;
23336;SDS011;11840;45.414;12.372;2022-10-16T10:45:18;47.63;;;37.53;;
23336;SDS011;11840;45.414;12.372;2022-10-16T10:53:07;50.05;;;40.15;;
23336;SDS011;11840;45.414;12.372;2022-10-16T10:55:39;48.15;;;38.47;;
23336;SDS011;11840;45.414;12.372;2022-10-16T11:05:38;49.53;;;41.05;;
23336;SDS011;11840;45.414;12.372;2022-10-16T11:10:52;47.50;;;38.20;;
23336;SDS011;11840;45.414;12.372;2022-10-16T11:15:44;53.00;;;38.90;;
23336;SDS011;11840;45.414;12.372;2022-10-16T11:18:16;46.53;;;37.45;;
23336;SDS011;11840;45.414;12.372;2022-10-16T11:20:45;46.10;;;38.05;;
23336;SDS011;11840;45.414;12.372;2022-10-16T11:23:29;44.08;;;35.75;;
23336;SDS011;11840;45.414;12.372;2022-10-16T11:25:57;49.92;;;37.85;;
23336;SDS011;11840;45.414;12.372;2022-10-16T11:31:32;46.20;;;36.67;;
23336;SDS011;11840;45.414;12.372;2022-10-16T11:34:06;51.08;;;37.75;;
23336;SDS011;11840;45.414;12.372;2022-10-16T11:44:38;45.38;;;35.67;;
23336;SDS011;11840;45.414;12.372;2022-10-16T11:47:13;46.00;;;36.08;;
23336;SDS011;11840;45.414;12.372;2022-10-16T11:49:40;46.90;;;36.38;;
23336;SDS011;11840;45.414;12.372;2022-10-16T11:57:26;48.55;;;37.08;;
23336;SDS011;11840;45.414;12.372;2022-10-16T12:00:28;45.15;;;36.42;;
23336;SDS011;11840;45.414;12.372;2022-10-16T12:02:50;46.78;;;36.13;;
23336;SDS011;11840;45.414;12.372;2022-10-16T12:05:33;45.97;;;37.42;;
23336;SDS011;11840;45.414;12.372;2022-10-16T12:08:13;43.83;;;36.28;;
23336;SDS011;11840;45.414;12.372;2022-10-16T12:10:41;46.45;;;35.05;;
23336;SDS011;11840;45.414;12.372;2022-10-16T12:15:52;44.20;;;35.72;;
23336;SDS011;11840;45.414;12.372;2022-10-16T12:18:29;42.05;;;35.53;;
23336;SDS011;11840;45.414;12.372;2022-10-16T12:20:56;42.42;;;35.60;;
23336;SDS011;11840;45.414;12.372;2022-10-16T12:25:56;42.83;;;35.30;;
23336;SDS011;11840;45.414;12.372;2022-10-16T12:28:26;42.42;;;35.78;;
23336;SDS011;11840;45.414;12.372;2022-10-16T12:30:56;42.78;;;35.25;;
23336;SDS011;11840;45.414;12.372;2022-10-16T12:33:23;45.30;;;36.50;;
23336;SDS011;11840;45.414;12.372;2022-10-16T12:35:49;44.58;;;34.92;;
23336;SDS011;11840;45.414;12.372;2022-10-16T12:38:17;39.58;;;33.50;;
23336;SDS011;11840;45.414;12.372;2022-10-16T12:40:44;43.80;;;35.85;;
23336;SDS011;11840;45.414;12.372;2022-10-16T12:45:39;42.80;;;34.25;;
23336;SDS011;11840;45.414;12.372;2022-10-16T12:48:17;39.17;;;34.00;;
23336;SDS011;11840;45.414;12.372;2022-10-16T12:50:45;42.45;;;34.38;;
23336;SDS011;11840;45.414;12.372;2022-10-16T12:53:44;42.53;;;34.85;;
23336;SDS011;11840;45.414;12.372;2022-10-16T12:56:08;39.55;;;33.80;;
23336;SDS011;11840;45.414;12.372;2022-10-16T13:01:12;39.10;;;32.38;;
23336;SDS011;11840;45.414;12.372;2022-10-16T13:14:17;39.88;;;34.45;;
23336;SDS011;11840;45.414;12.372;2022-10-16T13:26:59;38.13;;;34.05;;
23336;SDS011;11840;45.414;12.372;2022-10-16T13:29:31;39.63;;;34.05;;
23336;SDS011;11840;45.414;12.372;2022-10-16T13:31:57;40.80;;;36.00;;
23336;SDS011;11840;45.414;12.372;2022-10-16T13:34:23;39.67;;;34.08;;
23336;SDS011;11840;45.414;12.372;2022-10-16T13:36:51;40.25;;;34.05;;
23336;SDS011;11840;45.414;12.372;2022-10-16T13:42:06;39.30;;;33.38;;
23336;SDS011;11840;45.414;12.372;2022-10-16T13:44:38;38.58;;;33.30;;
23336;SDS011;11840;45.414;12.372;2022-10-16T13:47:04;39.80;;;34.00;;
23336;SDS011;11840;45.414;12.372;2022-10-16T13:49:30;37.45;;;32.92;;
23336;SDS011;11840;45.414;12.372;2022-10-16T13:51:57;38.05;;;33.80;;
23336;SDS011;11840;45.414;12.372;2022-10-16T13:54:23;37.33;;;33.20;;
23336;SDS011;11840;45.414;12.372;2022-10-16T13:56:49;40.20;;;34.63;;
23336;SDS011;11840;45.414;12.372;2022-10-16T13:59:23;38.22;;;33.80;;
23336;SDS011;11840;45.414;12.372;2022-10-16T14:01:49;37.60;;;33.38;;
23336;SDS011;11840;45.414;12.372;2022-10-16T14:04:15;37.58;;;33.25;;
23336;SDS011;11840;45.414;12.372;2022-10-16T14:06:42;36.65;;;31.50;;
23336;SDS011;11840;45.414;12.372;2022-10-16T14:11:51;36.38;;;30.92;;
23336;SDS011;11840;45.414;12.372;2022-10-16T14:14:18;36.85;;;32.97;;
23336;SDS011;11840;45.414;12.372;2022-10-16T14:16:45;38.25;;;32.13;;
23336;SDS011;11840;45.414;12.372;2022-10-16T14:19:20;37.10;;;33.20;;
23336;SDS011;11840;45.414;12.372;2022-10-16T14:21:48;34.22;;;30.58;;
23336;SDS011;11840;45.414;12.372;2022-10-16T14:27:28;35.90;;;32.13;;
23336;SDS011;11840;45.414;12.372;2022-10-16T14:32:35;34.45;;;30.67;;
23336;SDS011;11840;45.414;12.372;2022-10-16T14:35:01;34.88;;;31.30;;
23336;SDS011;11840;45.414;12.372;2022-10-16T14:37:28;34.70;;;30.65;;
23336;SDS011;11840;45.414;12.372;2022-10-16T14:39:54;33.42;;;30.02;;
23336;SDS011;11840;45.414;12.372;2022-10-16T14:42:21;34.70;;;31.10;;
23336;SDS011;11840;45.414;12.372;2022-10-16T14:44:52;35.95;;;32.15;;
23336;SDS011;11840;45.414;12.372;2022-10-16T14:47:20;35.08;;;31.63;;
23336;SDS011;11840;45.414;12.372;2022-10-16T14:49:49;34.45;;;30.85;;
23336;SDS011;11840;45.414;12.372;2022-10-16T14:52:15;35.85;;;32.03;;
23336;SDS011;11840;45.414;12.372;2022-10-16T14:54:41;34.65;;;31.13;;
23336;SDS011;11840;45.414;12.372;2022-10-16T14:57:16;34.58;;;30.98;;
23336;SDS011;11840;45.414;12.372;2022-10-16T14:59:43;37.13;;;33.22;;
23336;SDS011;11840;45.414;12.372;2022-10-16T15:04:54;34.13;;;30.60;;
23336;SDS011;11840;45.414;12.372;2022-10-16T15:07:21;35.00;;;31.40;;
23336;SDS011;11840;45.414;12.372;2022-10-16T15:09:47;33.90;;;30.45;;
23336;SDS011;11840;45.414;12.372;2022-10-16T15:12:13;36.38;;;32.75;;
23336;SDS011;11840;45.414;12.372;2022-10-16T15:14:39;33.33;;;29.83;;
23336;SDS011;11840;45.414;12.372;2022-10-16T15:17:08;36.55;;;32.53;;
23336;SDS011;11840;45.414;12.372;2022-10-16T15:19:34;36.67;;;31.90;;
23336;SDS011;11840;45.414;12.372;2022-10-16T15:21:59;36.35;;;32.58;;
23336;SDS011;11840;45.414;12.372;2022-10-16T15:24:25;36.88;;;32.97;;
23336;SDS011;11840;45.414;12.372;2022-10-16T15:26:52;32.55;;;29.27;;
23336;SDS011;11840;45.414;12.372;2022-10-16T15:29:18;34.88;;;30.73;;
23336;SDS011;11840;45.414;12.372;2022-10-16T15:31:43;35.15;;;31.58;;
23336;SDS011;11840;45.414;12.372;2022-10-16T15:34:13;39.25;;;35.08;;
23336;SDS011;11840;45.414;12.372;2022-10-16T15:36:38;38.67;;;34.63;;
23336;SDS011;11840;45.414;12.372;2022-10-16T15:39:05;40.85;;;32.85;;
23336;SDS011;11840;45.414;12.372;2022-10-16T15:41:31;35.92;;;32.13;;
23336;SDS011;11840;45.414;12.372;2022-10-16T15:43:57;38.63;;;34.63;;
23336;SDS011;11840;45.414;12.372;2022-10-16T15:46:23;34.97;;;31.25;;
23336;SDS011;11840;45.414;12.372;2022-10-16T15:48:49;40.25;;;35.72;;
23336;SDS011;11840;45.414;12.372;2022-10-16T15:51:16;39.42;;;35.20;;
23336;SDS011;11840;45.414;12.372;2022-10-16T15:53:41;37.33;;;32.75;;
23336;SDS011;11840;45.414;12.372;2022-10-16T15:56:08;42.83;;;38.20;;
23336;SDS011;11840;45.414;12.372;2022-10-16T15:58:34;35.15;;;31.45;;
23336;SDS011;11840;45.414;12.372;2022-10-16T16:01:01;38.72;;;32.83;;
23336;SDS011;11840;45.414;12.372;2022-10-16T16:03:27;36.22;;;32.45;;
23336;SDS011;11840;45.414;12.372;2022-10-16T16:05:54;40.22;;;35.90;;
23336;SDS011;11840;45.414;12.372;2022-10-16T16:08:20;38.00;;;33.92;;
23336;SDS011;11840;45.414;12.372;2022-10-16T16:10:59;40.83;;;35.00;;
23336;SDS011;11840;45.414;12.372;2022-10-16T16:13:25;37.03;;;33.35;;
23336;SDS011;11840;45.414;12.372;2022-10-16T16:15:51;39.92;;;35.42;;
23336;SDS011;11840;45.414;12.372;2022-10-16T16:18:18;38.45;;;34.55;;
23336;SDS011;11840;45.414;12.372;2022-10-16T16:20:44;42.78;;;37.17;;
23336;SDS011;11840;45.414;12.372;2022-10-16T16:23:10;40.95;;;35.38;;
23336;SDS011;11840;45.414;12.372;2022-10-16T16:25:37;39.20;;;33.67;;
23336;SDS011;11840;45.414;12.372;2022-10-16T16:28:03;44.50;;;37.53;;
23336;SDS011;11840;45.414;12.372;2022-10-16T16:30:30;38.30;;;33.25;;
23336;SDS011;11840;45.414;12.372;2022-10-16T16:32:56;41.65;;;36.40;;
23336;SDS011;11840;45.414;12.372;2022-10-16T16:35:22;42.42;;;36.97;;
23336;SDS011;11840;45.414;12.372;2022-10-16T16:37:48;44.17;;;38.00;;
23336;SDS011;11840;45.414;12.372;2022-10-16T16:40:15;37.30;;;33.30;;
23336;SDS011;11840;45.414;12.372;2022-10-16T16:42:41;42.60;;;37.90;;
23336;SDS011;11840;45.414;12.372;2022-10-16T16:45:06;41.08;;;36.67;;
23336;SDS011;11840;45.414;12.372;2022-10-16T16:47:34;38.15;;;34.13;;
23336;SDS011;11840;45.414;12.372;2022-10-16T16:50:00;39.10;;;35.00;;
23336;SDS011;11840;45.414;12.372;2022-10-16T16:52:29;39.85;;;35.55;;
23336;SDS011;11840;45.414;12.372;2022-10-16T16:54:56;39.22;;;34.33;;
23336;SDS011;11840;45.414;12.372;2022-10-16T16:57:22;42.65;;;38.03;;
23336;SDS011;11840;45.414;12.372;2022-10-16T16:59:49;42.40;;;35.85;;
23336;SDS011;11840;45.414;12.372;2022-10-16T17:02:15;38.53;;;34.55;;
23336;SDS011;11840;45.414;12.372;2022-10-16T17:04:41;39.13;;;34.88;;
23336;SDS011;11840;45.414;12.372;2022-10-16T17:07:07;37.63;;;33.53;;
23336;SDS011;11840;45.414;12.372;2022-10-16T17:09:33;37.10;;;33.35;;
23336;SDS011;11840;45.414;12.372;2022-10-16T17:11:58;40.58;;;35.00;;
23336;SDS011;11840;45.414;12.372;2022-10-16T17:14:25;40.05;;;35.25;;
23336;SDS011;11840;45.414;12.372;2022-10-16T17:16:51;36.92;;;33.10;;
23336;SDS011;11840;45.414;12.372;2022-10-16T17:19:18;37.75;;;32.28;;
23336;SDS011;11840;45.414;12.372;2022-10-16T17:21:45;42.13;;;37.60;;
23336;SDS011;11840;45.414;12.372;2022-10-16T17:24:11;41.28;;;36.53;;
23336;SDS011;11840;45.414;12.372;2022-10-16T17:26:37;39.75;;;35.55;;
23336;SDS011;11840;45.414;12.372;2022-10-16T17:29:05;38.47;;;34.47;;
23336;SDS011;11840;45.414;12.372;2022-10-16T17:31:32;39.40;;;33.08;;
23336;SDS011;11840;45.414;12.372;2022-10-16T17:33:59;40.15;;;35.38;;
23336;SDS011;11840;45.414;12.372;2022-10-16T17:36:25;42.20;;;36.78;;
23336;SDS011;11840;45.414;12.372;2022-10-16T17:38:53;38.72;;;34.65;;
23336;SDS011;11840;45.414;12.372;2022-10-16T17:41:21;38.67;;;34.47;;
23336;SDS011;11840;45.414;12.372;2022-10-16T17:43:47;38.50;;;34.25;;
23336;SDS011;11840;45.414;12.372;2022-10-16T17:46:13;38.58;;;34.38;;
23336;SDS011;11840;45.414;12.372;2022-10-16T17:48:40;43.08;;;37.35;;
23336;SDS011;11840;45.414;12.372;2022-10-16T17:51:06;40.47;;;36.28;;
23336;SDS011;11840;45.414;12.372;2022-10-16T17:53:32;35.13;;;31.48;;
23336;SDS011;11840;45.414;12.372;2022-10-16T17:56:03;44.63;;;39.20;;
23336;SDS011;11840;45.414;12.372;2022-10-16T17:58:29;41.22;;;36.85;;
23336;SDS011;11840;45.414;12.372;2022-10-16T18:00:54;43.80;;;39.10;;
23336;SDS011;11840;45.414;12.372;2022-10-16T18:03:21;39.17;;;34.97;;
23336;SDS011;11840;45.414;12.372;2022-10-16T18:05:47;41.67;;;37.35;;
23336;SDS011;11840;45.414;12.372;2022-10-16T18:08:13;41.83;;;37.22;;
23336;SDS011;11840;45.414;12.372;2022-10-16T18:10:46;45.80;;;39.53;;
23336;SDS011;11840;45.414;12.372;2022-10-16T18:13:12;42.90;;;38.28;;
23336;SDS011;11840;45.414;12.372;2022-10-16T18:15:38;43.20;;;38.53;;
23336;SDS011;11840;45.414;12.372;2022-10-16T18:18:04;42.75;;;38.25;;
23336;SDS011;11840;45.414;12.372;2022-10-16T18:20:31;42.80;;;37.75;;
23336;SDS011;11840;45.414;12.372;2022-10-16T18:22:57;43.65;;;38.95;;
23336;SDS011;11840;45.414;12.372;2022-10-16T18:25:22;42.63;;;37.97;;
23336;SDS011;11840;45.414;12.372;2022-10-16T18:27:48;42.60;;;37.97;;
23336;SDS011;11840;45.414;12.372;2022-10-16T18:30:14;45.30;;;40.20;;
23336;SDS011;11840;45.414;12.372;2022-10-16T18:32:40;43.45;;;38.75;;
23336;SDS011;11840;45.414;12.372;2022-10-16T18:35:05;44.90;;;39.88;;
23336;SDS011;11840;45.414;12.372;2022-10-16T18:37:33;44.97;;;40.00;;
23336;SDS011;11840;45.414;12.372;2022-10-16T18:39:59;46.40;;;41.17;;
23336;SDS011;11840;45.414;12.372;2022-10-16T18:42:25;45.75;;;38.75;;
23336;SDS011;11840;45.414;12.372;2022-10-16T18:44:51;45.65;;;38.97;;
23336;SDS011;11840;45.414;12.372;2022-10-16T18:47:17;42.58;;;38.00;;
23336;SDS011;11840;45.414;12.372;2022-10-16T18:49:43;45.63;;;38.60;;
23336;SDS011;11840;45.414;12.372;2022-10-16T18:52:10;44.22;;;39.47;;
23336;SDS011;11840;45.414;12.372;2022-10-16T18:54:36;45.33;;;40.45;;
23336;SDS011;11840;45.414;12.372;2022-10-16T18:57:02;45.58;;;40.67;;
23336;SDS011;11840;45.414;12.372;2022-10-16T18:59:28;44.17;;;38.58;;
23336;SDS011;11840;45.414;12.372;2022-10-16T19:01:54;44.22;;;39.45;;
23336;SDS011;11840;45.414;12.372;2022-10-16T19:04:20;47.17;;;40.20;;
23336;SDS011;11840;45.414;12.372;2022-10-16T19:06:49;44.42;;;39.00;;
23336;SDS011;11840;45.414;12.372;2022-10-16T19:09:16;45.40;;;39.70;;
23336;SDS011;11840;45.414;12.372;2022-10-16T19:11:42;48.08;;;41.13;;
23336;SDS011;11840;45.414;12.372;2022-10-16T19:14:09;47.63;;;40.55;;
23336;SDS011;11840;45.414;12.372;2022-10-16T19:16:34;44.03;;;38.92;;
23336;SDS011;11840;45.414;12.372;2022-10-16T19:19:01;44.70;;;39.80;;
23336;SDS011;11840;45.414;12.372;2022-10-16T19:21:28;210.50;;;174.00;;
23336;SDS011;11840;45.414;12.372;2022-10-16T19:23:55;62.00;;;49.85;;
23336;SDS011;11840;45.414;12.372;2022-10-16T19:26:21;46.88;;;41.15;;
23336;SDS011;11840;45.414;12.372;2022-10-16T19:28:48;49.08;;;41.63;;
23336;SDS011;11840;45.414;12.372;2022-10-16T19:31:15;45.63;;;40.65;;
23336;SDS011;11840;45.414;12.372;2022-10-16T19:33:42;49.25;;;42.03;;
23336;SDS011;11840;45.414;12.372;2022-10-16T19:36:18;47.70;;;39.28;;
23336;SDS011;11840;45.414;12.372;2022-10-16T19:38:44;48.42;;;40.70;;
23336;SDS011;11840;45.414;12.372;2022-10-16T19:41:14;47.38;;;41.65;;
23336;SDS011;11840;45.414;12.372;2022-10-16T19:43:41;46.97;;;39.67;;
23336;SDS011;11840;45.414;12.372;2022-10-16T19:46:08;48.30;;;40.80;;
23336;SDS011;11840;45.414;12.372;2022-10-16T19:48:35;45.30;;;40.30;;
23336;SDS011;11840;45.414;12.372;2022-10-16T19:51:01;47.42;;;39.95;;
23336;SDS011;11840;45.414;12.372;2022-10-16T19:53:27;44.88;;;39.97;;
23336;SDS011;11840;45.414;12.372;2022-10-16T19:55:53;51.60;;;40.92;;
23336;SDS011;11840;45.414;12.372;2022-10-16T19:58:19;45.80;;;39.45;;
23336;SDS011;11840;45.414;12.372;2022-10-16T20:00:45;46.28;;;39.92;;
23336;SDS011;11840;45.414;12.372;2022-10-16T20:03:10;46.20;;;39.03;;
23336;SDS011;11840;45.414;12.372;2022-10-16T20:05:36;45.08;;;40.13;;
23336;SDS011;11840;45.414;12.372;2022-10-16T20:08:02;47.05;;;40.65;;
23336;SDS011;11840;45.414;12.372;2022-10-16T20:10:28;46.38;;;39.85;;
23336;SDS011;11840;45.414;12.372;2022-10-16T20:12:54;50.58;;;41.47;;
23336;SDS011;11840;45.414;12.372;2022-10-16T20:15:20;49.33;;;41.05;;
23336;SDS011;11840;45.414;12.372;2022-10-16T20:17:46;49.53;;;41.63;;
23336;SDS011;11840;45.414;12.372;2022-10-16T20:20:13;49.40;;;41.22;;
23336;SDS011;11840;45.414;12.372;2022-10-16T20:22:38;47.40;;;41.05;;
23336;SDS011;11840;45.414;12.372;2022-10-16T20:25:04;50.92;;;41.13;;
23336;SDS011;11840;45.414;12.372;2022-10-16T20:27:31;48.35;;;40.95;;
23336;SDS011;11840;45.414;12.372;2022-10-16T20:29:57;49.40;;;40.40;;
23336;SDS011;11840;45.414;12.372;2022-10-16T20:32:23;49.30;;;40.55;;
23336;SDS011;11840;45.414;12.372;2022-10-16T20:34:50;46.28;;;41.28;;
23336;SDS011;11840;45.414;12.372;2022-10-16T20:37:16;48.92;;;41.65;;
23336;SDS011;11840;45.414;12.372;2022-10-16T20:39:42;49.72;;;40.95;;
23336;SDS011;11840;45.414;12.372;2022-10-16T20:42:08;50.90;;;40.75;;
23336;SDS011;11840;45.414;12.372;2022-10-16T20:44:34;48.10;;;41.92;;
23336;SDS011;11840;45.414;12.372;2022-10-16T20:47:01;48.83;;;41.15;;
23336;SDS011;11840;45.414;12.372;2022-10-16T20:49:26;48.70;;;42.55;;
23336;SDS011;11840;45.414;12.372;2022-10-16T20:51:53;47.88;;;41.22;;
23336;SDS011;11840;45.414;12.372;2022-10-16T20:54:20;51.22;;;41.85;;
23336;SDS011;11840;45.414;12.372;2022-10-16T20:56:46;56.17;;;47.78;;
23336;SDS011;11840;45.414;12.372;2022-10-16T20:59:12;63.92;;;52.67;;
23336;SDS011;11840;45.414;12.372;2022-10-16T21:01:38;51.53;;;42.75;;
23336;SDS011;11840;45.414;12.372;2022-10-16T21:04:05;48.33;;;42.03;;
23336;SDS011;11840;45.414;12.372;2022-10-16T21:06:32;50.05;;;41.60;;
23336;SDS011;11840;45.414;12.372;2022-10-16T21:08:58;47.45;;;40.05;;
23336;SDS011;11840;45.414;12.372;2022-10-16T21:11:28;53.40;;;43.38;;
23336;SDS011;11840;45.414;12.372;2022-10-16T21:13:55;54.05;;;43.53;;
23336;SDS011;11840;45.414;12.372;2022-10-16T21:16:21;49.40;;;43.25;;
23336;SDS011;11840;45.414;12.372;2022-10-16T21:18:47;50.80;;;43.22;;
23336;SDS011;11840;45.414;12.372;2022-10-16T21:21:20;52.05;;;43.92;;
23336;SDS011;11840;45.414;12.372;2022-10-16T21:23:46;50.33;;;41.70;;
23336;SDS011;11840;45.414;12.372;2022-10-16T21:26:12;49.95;;;42.58;;
23336;SDS011;11840;45.414;12.372;2022-10-16T21:28:38;49.28;;;42.10;;
23336;SDS011;11840;45.414;12.372;2022-10-16T21:31:15;52.47;;;42.63;;